sensor_id;sensor_type;location;lat;lon;timestamp;pressure;altitude;pressure_sealevel;temperature;humidity
64352;BME280;50680;52.626;-8.668;2023-07-28T10:07:16;100136.97;;;21.19;100.00
64352;BME280;50680;52.626;-8.668;2023-07-28T10:09:44;100133.81;;;21.78;100.00
64352;BME280;50680;52.626;-8.668;2023-07-28T10:12:20;100124.16;;;22.15;100.00
64352;BME280;50680;52.626;-8.668;2023-07-28T10:15:00;100128.22;;;22.49;100.00
64352;BME280;50680;52.626;-8.668;2023-07-28T10:17:32;100124.84;;;22.92;100.00
64352;BME280;50680;52.626;-8.668;2023-07-28T10:19:59;100108.28;;;22.52;100.00
64352;BME280;50680;52.626;-8.668;2023-07-28T10:22:26;100113.69;;;22.88;100.00
64352;BME280;50680;52.626;-8.668;2023-07-28T10:25:00;100107.22;;;22.08;100.00
64352;BME280;50680;52.626;-8.668;2023-07-28T10:30:03;100101.09;;;21.62;100.00
64352;BME280;50680;52.626;-8.668;2023-07-28T10:32:38;100105.38;;;21.48;100.00
64352;BME280;50680;52.626;-8.668;2023-07-28T10:37:36;100102.22;;;21.67;100.00
64352;BME280;50680;52.626;-8.668;2023-07-28T10:40:29;100099.03;;;21.09;100.00
64352;BME280;50680;52.626;-8.668;2023-07-28T10:43:03;100091.59;;;21.04;100.00
64352;BME280;50680;52.626;-8.668;2023-07-28T10:45:32;100096.66;;;20.91;100.00
64352;BME280;50680;52.626;-8.668;2023-07-28T10:47:59;100097.88;;;20.80;100.00
64352;BME280;50680;52.626;-8.668;2023-07-28T10:50:29;100094.06;;;20.75;100.00
64352;BME280;50680;52.626;-8.668;2023-07-28T10:52:57;100100.69;;;20.79;100.00
64352;BME280;50680;52.626;-8.668;2023-07-28T10:55:26;100091.81;;;20.95;100.00
64352;BME280;50680;52.626;-8.668;2023-07-28T10:57:54;100092.66;;;21.27;100.00
64352;BME280;50680;52.626;-8.668;2023-07-28T11:00:22;100101.50;;;21.42;100.00
64352;BME280;50680;52.626;-8.668;2023-07-28T11:02:53;100101.56;;;21.65;100.00
64352;BME280;50680;52.626;-8.668;2023-07-28T11:05:25;100095.72;;;21.85;100.00
64352;BME280;50680;52.626;-8.668;2023-07-28T11:07:57;100097.06;;;22.04;100.00
64352;BME280;50680;52.626;-8.668;2023-07-28T11:10:27;100096.25;;;22.03;100.00
64352;BME280;50680;52.626;-8.668;2023-07-28T11:12:57;100089.22;;;22.02;100.00
64352;BME280;50680;52.626;-8.668;2023-07-28T11:15:28;100074.50;;;21.91;100.00
64352;BME280;50680;52.626;-8.668;2023-07-28T11:17:55;100076.41;;;21.83;100.00
64352;BME280;50680;52.626;-8.668;2023-07-28T11:20:24;100071.88;;;21.83;100.00
64352;BME280;50680;52.626;-8.668;2023-07-28T11:25:20;100073.53;;;22.22;100.00
64352;BME280;50680;52.626;-8.668;2023-07-28T11:27:48;100070.44;;;22.48;100.00
64352;BME280;50680;52.626;-8.668;2023-07-28T11:30:17;100063.28;;;22.85;100.00
64352;BME280;50680;52.626;-8.668;2023-07-28T11:32:46;100060.56;;;23.58;100.00
64352;BME280;50680;52.626;-8.668;2023-07-28T11:35:14;100065.63;;;24.25;100.00
64352;BME280;50680;52.626;-8.668;2023-07-28T11:37:43;100067.50;;;24.59;100.00
64352;BME280;50680;52.626;-8.668;2023-07-28T11:40:14;100051.84;;;24.63;100.00
64352;BME280;50680;52.626;-8.668;2023-07-28T11:42:44;100064.75;;;24.94;100.00
64352;BME280;50680;52.626;-8.668;2023-07-28T11:45:13;100058.59;;;25.07;100.00
64352;BME280;50680;52.626;-8.668;2023-07-28T11:47:40;100063.97;;;25.07;100.00
64352;BME280;50680;52.626;-8.668;2023-07-28T11:50:28;100051.06;;;24.75;100.00
64352;BME280;50680;52.626;-8.668;2023-07-28T11:52:59;100054.47;;;25.04;100.00
64352;BME280;50680;52.626;-8.668;2023-07-28T11:55:26;100056.19;;;25.25;100.00
64352;BME280;50680;52.626;-8.668;2023-07-28T11:57:55;100050.44;;;25.35;100.00
64352;BME280;50680;52.626;-8.668;2023-07-28T12:00:33;100053.22;;;25.07;100.00
64352;BME280;50680;52.626;-8.668;2023-07-28T12:03:07;100054.78;;;24.74;100.00
64352;BME280;50680;52.626;-8.668;2023-07-28T12:05:41;100055.25;;;24.50;100.00
64352;BME280;50680;52.626;-8.668;2023-07-28T12:08:12;100051.63;;;24.29;100.00
64352;BME280;50680;52.626;-8.668;2023-07-28T12:10:54;100061.28;;;23.89;100.00
64352;BME280;50680;52.626;-8.668;2023-07-28T12:13:24;100063.00;;;23.53;100.00
64352;BME280;50680;52.626;-8.668;2023-07-28T12:15:56;100062.75;;;23.26;100.00
64352;BME280;50680;52.626;-8.668;2023-07-28T12:18:29;100065.84;;;22.94;100.00
64352;BME280;50680;52.626;-8.668;2023-07-28T12:21:00;100059.47;;;22.58;100.00
64352;BME280;50680;52.626;-8.668;2023-07-28T12:23:26;100068.50;;;22.42;100.00
64352;BME280;50680;52.626;-8.668;2023-07-28T12:25:56;100065.97;;;22.26;100.00
64352;BME280;50680;52.626;-8.668;2023-07-28T12:28:25;100079.13;;;21.97;100.00
64352;BME280;50680;52.626;-8.668;2023-07-28T12:30:52;100080.66;;;21.92;100.00
64352;BME280;50680;52.626;-8.668;2023-07-28T12:33:23;100072.44;;;21.78;100.00
64352;BME280;50680;52.626;-8.668;2023-07-28T12:36:05;100082.22;;;21.86;100.00
64352;BME280;50680;52.626;-8.668;2023-07-28T12:38:35;100069.25;;;22.13;100.00
64352;BME280;50680;52.626;-8.668;2023-07-28T12:41:05;100069.03;;;22.52;100.00
64352;BME280;50680;52.626;-8.668;2023-07-28T12:43:36;100064.53;;;23.04;100.00
64352;BME280;50680;52.626;-8.668;2023-07-28T12:46:05;100061.28;;;23.45;100.00
64352;BME280;50680;52.626;-8.668;2023-07-28T12:48:35;100061.56;;;23.79;100.00
64352;BME280;50680;52.626;-8.668;2023-07-28T12:51:14;100061.72;;;23.92;100.00
64352;BME280;50680;52.626;-8.668;2023-07-28T12:53:56;100059.28;;;23.97;100.00
64352;BME280;50680;52.626;-8.668;2023-07-28T12:56:23;100057.47;;;24.05;100.00
64352;BME280;50680;52.626;-8.668;2023-07-28T12:58:53;100055.97;;;23.95;100.00
64352;BME280;50680;52.626;-8.668;2023-07-28T13:01:23;100060.84;;;23.85;100.00
64352;BME280;50680;52.626;-8.668;2023-07-28T13:03:50;100067.47;;;23.46;100.00
64352;BME280;50680;52.626;-8.668;2023-07-28T13:06:17;100063.50;;;23.20;100.00
64352;BME280;50680;52.626;-8.668;2023-07-28T13:08:44;100057.28;;;22.98;100.00
64352;BME280;50680;52.626;-8.668;2023-07-28T13:11:14;100060.41;;;23.02;100.00
64352;BME280;50680;52.626;-8.668;2023-07-28T13:13:43;100060.50;;;22.94;100.00
64352;BME280;50680;52.626;-8.668;2023-07-28T13:16:10;100058.97;;;22.84;100.00
64352;BME280;50680;52.626;-8.668;2023-07-28T13:18:39;100057.66;;;22.80;100.00
64352;BME280;50680;52.626;-8.668;2023-07-28T13:21:06;100053.34;;;22.79;100.00
64352;BME280;50680;52.626;-8.668;2023-07-28T13:23:33;100059.53;;;22.65;100.00
64352;BME280;50680;52.626;-8.668;2023-07-28T13:26:00;100052.75;;;22.47;100.00
64352;BME280;50680;52.626;-8.668;2023-07-28T13:28:27;100060.88;;;22.39;100.00
64352;BME280;50680;52.626;-8.668;2023-07-28T13:30:54;100059.56;;;22.35;100.00
64352;BME280;50680;52.626;-8.668;2023-07-28T13:33:21;100063.56;;;22.16;100.00
64352;BME280;50680;52.626;-8.668;2023-07-28T13:35:48;100060.78;;;21.94;100.00
64352;BME280;50680;52.626;-8.668;2023-07-28T13:38:15;100063.41;;;21.79;100.00
64352;BME280;50680;52.626;-8.668;2023-07-28T13:40:42;100071.47;;;21.56;100.00
64352;BME280;50680;52.626;-8.668;2023-07-28T13:43:09;100067.53;;;21.44;100.00
64352;BME280;50680;52.626;-8.668;2023-07-28T13:45:43;100066.34;;;21.47;100.00
64352;BME280;50680;52.626;-8.668;2023-07-28T13:48:10;100064.41;;;21.64;100.00
64352;BME280;50680;52.626;-8.668;2023-07-28T13:50:51;100062.81;;;21.92;100.00
64352;BME280;50680;52.626;-8.668;2023-07-28T13:53:22;100053.31;;;22.43;100.00
64352;BME280;50680;52.626;-8.668;2023-07-28T13:55:52;100052.31;;;22.29;100.00
64352;BME280;50680;52.626;-8.668;2023-07-28T13:58:22;100056.13;;;22.71;100.00
64352;BME280;50680;52.626;-8.668;2023-07-28T14:00:49;100048.47;;;22.68;100.00
64352;BME280;50680;52.626;-8.668;2023-07-28T14:03:16;100053.22;;;22.87;100.00
64352;BME280;50680;52.626;-8.668;2023-07-28T14:05:44;100052.16;;;23.18;100.00
64352;BME280;50680;52.626;-8.668;2023-07-28T14:08:12;100054.97;;;23.53;100.00
64352;BME280;50680;52.626;-8.668;2023-07-28T14:10:43;100044.50;;;23.58;100.00
64352;BME280;50680;52.626;-8.668;2023-07-28T14:13:10;100037.94;;;23.82;100.00
64352;BME280;50680;52.626;-8.668;2023-07-28T14:15:38;100049.53;;;24.18;100.00
64352;BME280;50680;52.626;-8.668;2023-07-28T14:18:07;100041.25;;;24.13;100.00
64352;BME280;50680;52.626;-8.668;2023-07-28T14:20:34;100038.28;;;24.36;100.00
64352;BME280;50680;52.626;-8.668;2023-07-28T14:23:01;100035.38;;;24.31;100.00
64352;BME280;50680;52.626;-8.668;2023-07-28T14:25:28;100025.34;;;24.46;100.00
64352;BME280;50680;52.626;-8.668;2023-07-28T14:27:55;100023.84;;;24.72;100.00
64352;BME280;50680;52.626;-8.668;2023-07-28T14:30:22;100021.53;;;24.62;100.00
64352;BME280;50680;52.626;-8.668;2023-07-28T14:32:49;100025.72;;;24.36;100.00
64352;BME280;50680;52.626;-8.668;2023-07-28T14:35:16;100015.69;;;24.45;100.00
64352;BME280;50680;52.626;-8.668;2023-07-28T14:37:43;100022.00;;;24.37;100.00
64352;BME280;50680;52.626;-8.668;2023-07-28T14:40:10;100011.28;;;24.37;100.00
64352;BME280;50680;52.626;-8.668;2023-07-28T14:42:37;100013.97;;;24.37;100.00
64352;BME280;50680;52.626;-8.668;2023-07-28T14:45:06;100003.88;;;24.39;100.00
64352;BME280;50680;52.626;-8.668;2023-07-28T14:47:33;100006.38;;;24.06;100.00
64352;BME280;50680;52.626;-8.668;2023-07-28T14:50:00;100014.41;;;23.78;100.00
64352;BME280;50680;52.626;-8.668;2023-07-28T14:52:27;100017.16;;;23.35;100.00
64352;BME280;50680;52.626;-8.668;2023-07-28T14:54:54;100012.66;;;22.47;100.00
64352;BME280;50680;52.626;-8.668;2023-07-28T14:57:20;100010.38;;;22.00;100.00
64352;BME280;50680;52.626;-8.668;2023-07-28T15:00:00;100007.50;;;21.86;100.00
64352;BME280;50680;52.626;-8.668;2023-07-28T15:02:27;100009.41;;;21.77;100.00
64352;BME280;50680;52.626;-8.668;2023-07-28T15:04:54;100008.31;;;21.87;100.00
64352;BME280;50680;52.626;-8.668;2023-07-28T15:07:21;100006.84;;;22.59;100.00
64352;BME280;50680;52.626;-8.668;2023-07-28T15:09:49;99999.97;;;22.34;100.00
64352;BME280;50680;52.626;-8.668;2023-07-28T15:12:16;100000.69;;;22.58;100.00
64352;BME280;50680;52.626;-8.668;2023-07-28T15:14:43;99999.94;;;22.64;100.00
64352;BME280;50680;52.626;-8.668;2023-07-28T15:17:10;99996.53;;;22.56;100.00
64352;BME280;50680;52.626;-8.668;2023-07-28T15:19:38;100004.38;;;22.42;100.00
64352;BME280;50680;52.626;-8.668;2023-07-28T15:22:05;99985.50;;;22.44;100.00
64352;BME280;50680;52.626;-8.668;2023-07-28T15:24:32;99989.16;;;22.58;100.00
64352;BME280;50680;52.626;-8.668;2023-07-28T15:26:59;99996.88;;;22.82;100.00
64352;BME280;50680;52.626;-8.668;2023-07-28T15:29:26;99992.41;;;22.89;100.00
64352;BME280;50680;52.626;-8.668;2023-07-28T15:31:52;99999.78;;;22.87;100.00
64352;BME280;50680;52.626;-8.668;2023-07-28T15:34:20;99998.13;;;22.86;100.00
64352;BME280;50680;52.626;-8.668;2023-07-28T15:36:48;100002.13;;;22.76;100.00
64352;BME280;50680;52.626;-8.668;2023-07-28T15:39:15;100005.00;;;22.59;100.00
64352;BME280;50680;52.626;-8.668;2023-07-28T15:41:42;99999.41;;;22.24;100.00
64352;BME280;50680;52.626;-8.668;2023-07-28T15:44:09;99996.91;;;22.08;100.00
64352;BME280;50680;52.626;-8.668;2023-07-28T15:46:36;99991.03;;;22.12;100.00
64352;BME280;50680;52.626;-8.668;2023-07-28T15:49:04;99982.84;;;22.14;100.00
64352;BME280;50680;52.626;-8.668;2023-07-28T15:51:31;99980.63;;;22.17;100.00
64352;BME280;50680;52.626;-8.668;2023-07-28T15:53:58;99978.84;;;22.25;100.00
64352;BME280;50680;52.626;-8.668;2023-07-28T15:56:25;99984.03;;;22.11;100.00
64352;BME280;50680;52.626;-8.668;2023-07-28T15:58:52;99979.34;;;22.28;100.00
64352;BME280;50680;52.626;-8.668;2023-07-28T16:01:19;99982.28;;;22.04;100.00
64352;BME280;50680;52.626;-8.668;2023-07-28T16:03:47;99983.38;;;22.09;100.00
64352;BME280;50680;52.626;-8.668;2023-07-28T16:06:13;99982.94;;;22.21;100.00
64352;BME280;50680;52.626;-8.668;2023-07-28T16:08:40;99979.16;;;22.45;100.00
64352;BME280;50680;52.626;-8.668;2023-07-28T16:11:07;99980.75;;;22.39;100.00
64352;BME280;50680;52.626;-8.668;2023-07-28T16:13:34;99976.81;;;22.27;100.00
64352;BME280;50680;52.626;-8.668;2023-07-28T16:16:01;99973.81;;;22.30;100.00
64352;BME280;50680;52.626;-8.668;2023-07-28T16:18:28;99972.47;;;22.34;100.00
64352;BME280;50680;52.626;-8.668;2023-07-28T16:20:55;99972.97;;;22.14;100.00
64352;BME280;50680;52.626;-8.668;2023-07-28T16:23:22;99972.25;;;21.91;100.00
64352;BME280;50680;52.626;-8.668;2023-07-28T16:25:49;99975.00;;;21.83;100.00
64352;BME280;50680;52.626;-8.668;2023-07-28T16:28:16;99979.06;;;21.78;100.00
64352;BME280;50680;52.626;-8.668;2023-07-28T16:30:43;99968.66;;;21.84;100.00
64352;BME280;50680;52.626;-8.668;2023-07-28T16:33:12;99975.06;;;21.59;100.00
64352;BME280;50680;52.626;-8.668;2023-07-28T16:35:39;99972.22;;;21.38;100.00
64352;BME280;50680;52.626;-8.668;2023-07-28T16:38:07;99979.00;;;21.26;100.00
64352;BME280;50680;52.626;-8.668;2023-07-28T16:40:34;99966.56;;;21.18;100.00
64352;BME280;50680;52.626;-8.668;2023-07-28T16:43:01;99963.38;;;20.99;100.00
64352;BME280;50680;52.626;-8.668;2023-07-28T16:45:28;99966.50;;;20.80;100.00
64352;BME280;50680;52.626;-8.668;2023-07-28T16:47:55;99968.91;;;20.66;100.00
64352;BME280;50680;52.626;-8.668;2023-07-28T16:50:23;99965.91;;;20.61;100.00
64352;BME280;50680;52.626;-8.668;2023-07-28T16:52:50;99966.75;;;20.62;100.00
64352;BME280;50680;52.626;-8.668;2023-07-28T16:55:17;99975.59;;;20.54;100.00
64352;BME280;50680;52.626;-8.668;2023-07-28T16:57:44;99980.97;;;20.38;100.00
64352;BME280;50680;52.626;-8.668;2023-07-28T17:00:11;99983.75;;;20.13;100.00
64352;BME280;50680;52.626;-8.668;2023-07-28T17:02:38;99984.16;;;19.85;100.00
64352;BME280;50680;52.626;-8.668;2023-07-28T17:05:06;99989.00;;;19.49;100.00
64352;BME280;50680;52.626;-8.668;2023-07-28T17:07:33;100003.75;;;19.10;100.00
64352;BME280;50680;52.626;-8.668;2023-07-28T17:10:00;100000.81;;;18.71;100.00
64352;BME280;50680;52.626;-8.668;2023-07-28T17:12:27;99997.97;;;18.64;100.00
64352;BME280;50680;52.626;-8.668;2023-07-28T17:14:54;100001.09;;;18.59;100.00
64352;BME280;50680;52.626;-8.668;2023-07-28T17:17:21;100000.59;;;18.56;100.00
64352;BME280;50680;52.626;-8.668;2023-07-28T17:19:49;99992.69;;;18.80;100.00
64352;BME280;50680;52.626;-8.668;2023-07-28T17:22:16;99991.78;;;18.90;100.00
64352;BME280;50680;52.626;-8.668;2023-07-28T17:24:43;99987.78;;;18.94;100.00
64352;BME280;50680;52.626;-8.668;2023-07-28T17:27:10;99993.47;;;19.07;100.00
64352;BME280;50680;52.626;-8.668;2023-07-28T17:29:37;99996.13;;;19.24;100.00
64352;BME280;50680;52.626;-8.668;2023-07-28T17:32:04;99978.19;;;19.34;100.00
64352;BME280;50680;52.626;-8.668;2023-07-28T17:34:31;99980.50;;;19.62;100.00
64352;BME280;50680;52.626;-8.668;2023-07-28T17:36:58;99976.00;;;19.79;100.00
64352;BME280;50680;52.626;-8.668;2023-07-28T17:39:25;99971.50;;;19.87;100.00
64352;BME280;50680;52.626;-8.668;2023-07-28T17:41:52;99974.50;;;19.68;100.00
64352;BME280;50680;52.626;-8.668;2023-07-28T17:44:19;99964.53;;;19.70;100.00
64352;BME280;50680;52.626;-8.668;2023-07-28T17:46:46;99955.75;;;19.45;100.00
64352;BME280;50680;52.626;-8.668;2023-07-28T17:49:13;99956.25;;;19.48;100.00
64352;BME280;50680;52.626;-8.668;2023-07-28T17:51:39;99952.91;;;19.54;100.00
64352;BME280;50680;52.626;-8.668;2023-07-28T17:54:06;99961.38;;;19.50;100.00
64352;BME280;50680;52.626;-8.668;2023-07-28T17:56:33;99963.59;;;19.38;100.00
64352;BME280;50680;52.626;-8.668;2023-07-28T17:59:00;99962.56;;;19.31;100.00
64352;BME280;50680;52.626;-8.668;2023-07-28T18:01:27;99963.41;;;19.31;100.00
64352;BME280;50680;52.626;-8.668;2023-07-28T18:03:54;99970.88;;;19.36;100.00
64352;BME280;50680;52.626;-8.668;2023-07-28T18:06:22;99964.56;;;19.29;100.00
64352;BME280;50680;52.626;-8.668;2023-07-28T18:08:49;99967.56;;;19.17;100.00
64352;BME280;50680;52.626;-8.668;2023-07-28T18:11:16;99965.06;;;19.16;100.00
64352;BME280;50680;52.626;-8.668;2023-07-28T18:13:43;99976.19;;;19.11;100.00
64352;BME280;50680;52.626;-8.668;2023-07-28T18:16:10;99959.72;;;19.00;100.00
64352;BME280;50680;52.626;-8.668;2023-07-28T18:18:39;99977.84;;;19.04;100.00
64352;BME280;50680;52.626;-8.668;2023-07-28T18:21:06;99980.50;;;19.04;100.00
64352;BME280;50680;52.626;-8.668;2023-07-28T18:23:33;99976.53;;;19.00;100.00
64352;BME280;50680;52.626;-8.668;2023-07-28T18:26:00;99982.34;;;19.20;100.00
64352;BME280;50680;52.626;-8.668;2023-07-28T18:28:27;99979.00;;;19.02;100.00
64352;BME280;50680;52.626;-8.668;2023-07-28T18:30:55;99976.19;;;18.95;100.00
64352;BME280;50680;52.626;-8.668;2023-07-28T18:33:22;99979.47;;;18.89;100.00
64352;BME280;50680;52.626;-8.668;2023-07-28T18:35:54;99985.47;;;18.99;100.00
64352;BME280;50680;52.626;-8.668;2023-07-28T18:38:21;99995.75;;;18.94;100.00
64352;BME280;50680;52.626;-8.668;2023-07-28T18:40:48;100004.72;;;18.85;100.00
64352;BME280;50680;52.626;-8.668;2023-07-28T18:43:15;100014.28;;;18.77;100.00
64352;BME280;50680;52.626;-8.668;2023-07-28T18:45:42;100005.41;;;18.52;100.00
64352;BME280;50680;52.626;-8.668;2023-07-28T18:48:09;100012.09;;;18.30;100.00
64352;BME280;50680;52.626;-8.668;2023-07-28T18:50:36;100014.84;;;18.12;100.00
64352;BME280;50680;52.626;-8.668;2023-07-28T18:53:03;100016.19;;;17.90;100.00
64352;BME280;50680;52.626;-8.668;2023-07-28T18:55:30;100013.78;;;17.79;100.00
64352;BME280;50680;52.626;-8.668;2023-07-28T18:57:57;100018.50;;;17.67;100.00
64352;BME280;50680;52.626;-8.668;2023-07-28T19:00:24;100022.56;;;17.61;100.00
64352;BME280;50680;52.626;-8.668;2023-07-28T19:02:51;100018.13;;;17.62;100.00
64352;BME280;50680;52.626;-8.668;2023-07-28T19:05:22;100014.94;;;17.58;100.00
64352;BME280;50680;52.626;-8.668;2023-07-28T19:07:50;100024.56;;;17.59;100.00
64352;BME280;50680;52.626;-8.668;2023-07-28T19:10:17;100010.31;;;17.60;100.00
64352;BME280;50680;52.626;-8.668;2023-07-28T19:12:44;100026.66;;;17.74;100.00
64352;BME280;50680;52.626;-8.668;2023-07-28T19:15:11;100009.66;;;17.58;100.00
64352;BME280;50680;52.626;-8.668;2023-07-28T19:17:38;100033.41;;;17.68;100.00
64352;BME280;50680;52.626;-8.668;2023-07-28T19:20:05;100025.34;;;17.78;100.00
64352;BME280;50680;52.626;-8.668;2023-07-28T19:22:34;100029.25;;;17.65;100.00
64352;BME280;50680;52.626;-8.668;2023-07-28T19:25:01;100022.69;;;17.52;100.00
64352;BME280;50680;52.626;-8.668;2023-07-28T19:27:30;100020.28;;;17.66;100.00
64352;BME280;50680;52.626;-8.668;2023-07-28T19:29:57;100022.34;;;17.73;100.00
64352;BME280;50680;52.626;-8.668;2023-07-28T19:32:24;100024.38;;;17.79;100.00
64352;BME280;50680;52.626;-8.668;2023-07-28T19:34:52;100015.91;;;17.75;100.00
64352;BME280;50680;52.626;-8.668;2023-07-28T19:37:18;100012.63;;;17.81;100.00
64352;BME280;50680;52.626;-8.668;2023-07-28T19:40:06;100012.09;;;17.78;100.00
64352;BME280;50680;52.626;-8.668;2023-07-28T19:42:33;100016.25;;;17.80;100.00
64352;BME280;50680;52.626;-8.668;2023-07-28T19:45:00;100011.38;;;17.67;100.00
64352;BME280;50680;52.626;-8.668;2023-07-28T19:47:27;100025.59;;;17.66;100.00
64352;BME280;50680;52.626;-8.668;2023-07-28T19:49:54;100027.72;;;17.63;100.00
64352;BME280;50680;52.626;-8.668;2023-07-28T19:52:38;100025.94;;;17.63;100.00
64352;BME280;50680;52.626;-8.668;2023-07-28T19:55:05;100026.16;;;17.52;100.00
64352;BME280;50680;52.626;-8.668;2023-07-28T19:57:32;100019.94;;;17.43;100.00
64352;BME280;50680;52.626;-8.668;2023-07-28T19:59:59;100025.88;;;17.37;100.00
64352;BME280;50680;52.626;-8.668;2023-07-28T20:02:26;100025.56;;;17.22;100.00
64352;BME280;50680;52.626;-8.668;2023-07-28T20:04:53;100031.53;;;17.24;100.00
64352;BME280;50680;52.626;-8.668;2023-07-28T20:07:21;100036.41;;;17.29;100.00
64352;BME280;50680;52.626;-8.668;2023-07-28T20:09:49;100044.78;;;17.24;100.00
64352;BME280;50680;52.626;-8.668;2023-07-28T20:12:16;100043.03;;;17.33;100.00
64352;BME280;50680;52.626;-8.668;2023-07-28T20:14:43;100042.91;;;17.35;100.00
64352;BME280;50680;52.626;-8.668;2023-07-28T20:17:10;100023.88;;;17.21;100.00
64352;BME280;50680;52.626;-8.668;2023-07-28T20:19:37;100035.41;;;17.30;100.00
64352;BME280;50680;52.626;-8.668;2023-07-28T20:22:05;100036.91;;;17.33;100.00
64352;BME280;50680;52.626;-8.668;2023-07-28T20:24:32;100042.75;;;17.36;100.00
64352;BME280;50680;52.626;-8.668;2023-07-28T20:26:59;100048.59;;;17.22;100.00
64352;BME280;50680;52.626;-8.668;2023-07-28T20:29:26;100047.06;;;17.19;100.00
64352;BME280;50680;52.626;-8.668;2023-07-28T20:31:53;100053.69;;;17.05;100.00
64352;BME280;50680;52.626;-8.668;2023-07-28T20:34:20;100047.19;;;17.00;100.00
64352;BME280;50680;52.626;-8.668;2023-07-28T20:36:47;100050.50;;;16.84;100.00
64352;BME280;50680;52.626;-8.668;2023-07-28T20:39:14;100053.59;;;16.69;100.00
64352;BME280;50680;52.626;-8.668;2023-07-28T20:41:42;100051.97;;;16.59;100.00
64352;BME280;50680;52.626;-8.668;2023-07-28T20:44:09;100046.50;;;16.42;100.00
64352;BME280;50680;52.626;-8.668;2023-07-28T20:46:36;100045.16;;;16.28;100.00
64352;BME280;50680;52.626;-8.668;2023-07-28T20:49:04;100047.16;;;16.07;100.00
64352;BME280;50680;52.626;-8.668;2023-07-28T20:51:31;100052.75;;;15.94;100.00
64352;BME280;50680;52.626;-8.668;2023-07-28T20:54:00;100058.03;;;15.84;100.00
64352;BME280;50680;52.626;-8.668;2023-07-28T20:56:27;100063.06;;;15.77;100.00
64352;BME280;50680;52.626;-8.668;2023-07-28T20:58:53;100056.50;;;15.72;100.00
64352;BME280;50680;52.626;-8.668;2023-07-28T21:01:20;100059.41;;;15.69;100.00
64352;BME280;50680;52.626;-8.668;2023-07-28T21:03:47;100064.00;;;15.57;100.00
64352;BME280;50680;52.626;-8.668;2023-07-28T21:06:14;100060.84;;;15.44;100.00
64352;BME280;50680;52.626;-8.668;2023-07-28T21:08:41;100064.59;;;15.51;100.00
64352;BME280;50680;52.626;-8.668;2023-07-28T21:11:09;100060.53;;;15.56;100.00
64352;BME280;50680;52.626;-8.668;2023-07-28T21:13:36;100065.53;;;15.69;100.00
64352;BME280;50680;52.626;-8.668;2023-07-28T21:16:03;100068.34;;;15.77;100.00
64352;BME280;50680;52.626;-8.668;2023-07-28T21:18:31;100068.75;;;15.83;100.00
64352;BME280;50680;52.626;-8.668;2023-07-28T21:20:58;100057.72;;;15.97;100.00
64352;BME280;50680;52.626;-8.668;2023-07-28T21:23:25;100068.56;;;16.04;100.00
64352;BME280;50680;52.626;-8.668;2023-07-28T21:25:52;100064.97;;;16.05;100.00
64352;BME280;50680;52.626;-8.668;2023-07-28T21:28:19;100063.00;;;16.07;100.00
64352;BME280;50680;52.626;-8.668;2023-07-28T21:30:46;100065.50;;;16.18;100.00
64352;BME280;50680;52.626;-8.668;2023-07-28T21:33:15;100071.69;;;16.36;100.00
64352;BME280;50680;52.626;-8.668;2023-07-28T21:35:42;100069.56;;;16.50;100.00
64352;BME280;50680;52.626;-8.668;2023-07-28T21:38:09;100077.41;;;16.69;100.00
64352;BME280;50680;52.626;-8.668;2023-07-28T21:40:36;100076.44;;;16.70;100.00
64352;BME280;50680;52.626;-8.668;2023-07-28T21:43:03;100072.13;;;16.69;100.00
64352;BME280;50680;52.626;-8.668;2023-07-28T21:45:30;100072.44;;;16.66;100.00
64352;BME280;50680;52.626;-8.668;2023-07-28T21:47:57;100074.63;;;16.71;100.00
64352;BME280;50680;52.626;-8.668;2023-07-28T21:50:24;100067.69;;;16.70;100.00
64352;BME280;50680;52.626;-8.668;2023-07-28T21:52:51;100074.22;;;16.66;100.00
64352;BME280;50680;52.626;-8.668;2023-07-28T21:55:19;100070.63;;;16.67;100.00
64352;BME280;50680;52.626;-8.668;2023-07-28T21:57:46;100077.66;;;16.76;100.00
64352;BME280;50680;52.626;-8.668;2023-07-28T22:00:13;100075.38;;;16.63;100.00
64352;BME280;50680;52.626;-8.668;2023-07-28T22:02:40;100076.34;;;16.62;100.00
64352;BME280;50680;52.626;-8.668;2023-07-28T22:05:08;100071.03;;;16.62;100.00
64352;BME280;50680;52.626;-8.668;2023-07-28T22:07:35;100074.22;;;16.66;100.00
64352;BME280;50680;52.626;-8.668;2023-07-28T22:10:03;100069.56;;;16.50;100.00
64352;BME280;50680;52.626;-8.668;2023-07-28T22:12:32;100065.28;;;16.39;100.00
64352;BME280;50680;52.626;-8.668;2023-07-28T22:14:59;100065.56;;;16.36;100.00
64352;BME280;50680;52.626;-8.668;2023-07-28T22:17:26;100071.63;;;16.19;100.00
64352;BME280;50680;52.626;-8.668;2023-07-28T22:19:53;100074.69;;;16.14;100.00
64352;BME280;50680;52.626;-8.668;2023-07-28T22:22:20;100068.84;;;16.10;100.00
64352;BME280;50680;52.626;-8.668;2023-07-28T22:24:47;100071.13;;;15.95;100.00
64352;BME280;50680;52.626;-8.668;2023-07-28T22:27:14;100075.69;;;15.74;100.00
64352;BME280;50680;52.626;-8.668;2023-07-28T22:29:42;100076.41;;;15.56;100.00
64352;BME280;50680;52.626;-8.668;2023-07-28T22:32:09;100072.50;;;15.41;100.00
64352;BME280;50680;52.626;-8.668;2023-07-28T22:34:36;100083.75;;;15.43;100.00
64352;BME280;50680;52.626;-8.668;2023-07-28T22:37:03;100087.34;;;15.32;100.00
64352;BME280;50680;52.626;-8.668;2023-07-28T22:39:30;100091.94;;;15.30;100.00
64352;BME280;50680;52.626;-8.668;2023-07-28T22:41:57;100091.13;;;15.30;100.00
64352;BME280;50680;52.626;-8.668;2023-07-28T22:44:24;100090.13;;;15.21;100.00
64352;BME280;50680;52.626;-8.668;2023-07-28T22:46:50;100089.16;;;15.22;100.00
64352;BME280;50680;52.626;-8.668;2023-07-28T22:49:18;100091.94;;;15.20;100.00
64352;BME280;50680;52.626;-8.668;2023-07-28T22:51:45;100085.81;;;15.20;100.00